Time;durP1;ratioP1;P1;durP2;ratioP2;P2;SDS_P1;SDS_P2;PMS_P1;PMS_P2;Temp;Humidity;BMP_temperature;BMP_pressure;BME280_temperature;BME280_humidity;BME280_pressure;Samples;Min_cycle;Max_cycle;Signal;HPM_P1;HPM_P2
2023/12/16 00:00:42;;;;;;;33.38;20.58;;;;;;;4.35;100.00;101376.13;4934348;29;20055;-82
2023/12/16 00:03:07;;;;;;;34.28;21.00;;;;;;;4.62;100.00;101405.53;4934711;29;20023;-81
2023/12/16 00:05:32;;;;;;;32.53;20.15;;;;;;;4.65;100.00;101416.75;4934322;29;20031;-82
2023/12/16 00:07:58;;;;;;;30.60;19.15;;;;;;;4.56;100.00;101408.94;4934776;29;20034;-81
2023/12/16 00:10:23;;;;;;;32.40;19.75;;;;;;;4.74;100.00;101440.03;4934441;29;20054;-82
2023/12/16 00:12:48;;;;;;;32.58;20.75;;;;;;;4.63;100.00;101423.59;4934418;29;20083;-82
2023/12/16 00:15:14;;;;;;;31.60;20.73;;;;;;;4.65;100.00;101418.47;4950918;29;20040;-82
2023/12/16 00:17:39;;;;;;;34.15;19.73;;;;;;;4.75;100.00;101443.47;4934879;29;20507;-82
2023/12/16 00:20:05;;;;;;;37.30;20.60;;;;;;;4.51;100.00;101384.84;4934900;29;20474;-81
2023/12/16 00:22:31;;;;;;;35.67;21.08;;;;;;;4.72;100.00;101438.31;4931830;29;20035;-82
2023/12/16 00:24:56;;;;;;;35.63;22.85;;;;;;;4.41;100.00;101393.34;4931952;29;20035;-82
2023/12/16 00:27:22;;;;;;;36.63;24.23;;;;;;;4.73;100.00;101455.50;4931802;29;20043;-81
2023/12/16 00:29:47;;;;;;;39.25;21.58;;;;;;;4.49;100.00;101420.94;4931707;29;20401;-82
2023/12/16 00:32:12;;;;;;;36.25;22.17;;;;;;;4.68;100.00;101444.31;4931823;29;20031;-82
2023/12/16 00:34:38;;;;;;;32.60;21.45;;;;;;;4.70;100.00;101451.19;4915725;29;20079;-82
2023/12/16 00:37:06;;;;;;;36.20;23.65;;;;;;;4.72;100.00;101459.81;4931998;29;20039;-81
2023/12/16 00:39:32;;;;;;;38.72;22.75;;;;;;;4.81;100.00;101464.16;4931488;29;20130;-82
2023/12/16 00:41:58;;;;;;;38.50;23.15;;;;;;;4.61;100.00;101432.19;4931765;29;20042;-82
2023/12/16 00:44:23;;;;;;;36.03;21.42;;;;;;;4.66;100.00;101431.38;4931815;29;20028;-81
2023/12/16 00:46:49;;;;;;;33.75;19.85;;;;;;;4.62;100.00;101426.19;4931630;29;20044;-81
2023/12/16 00:49:14;;;;;;;37.13;23.27;;;;;;;4.82;100.00;101454.69;4931572;29;20044;-81
2023/12/16 00:51:39;;;;;;;34.45;21.30;;;;;;;4.20;100.00;101352.81;4930206;29;20055;-81
2023/12/16 00:54:04;;;;;;;48.00;29.67;;;;;;;4.78;100.00;101447.78;4915141;29;20035;-81
2023/12/16 00:56:30;;;;;;;35.72;24.77;;;;;;;4.65;100.00;101418.47;4915069;29;20461;-81
2023/12/16 00:58:56;;;;;;;40.47;20.30;;;;;;;4.78;100.00;101445.22;4917697;29;20047;-81
2023/12/16 01:01:22;;;;;;;32.58;19.27;;;;;;;4.63;100.00;101422.72;4918390;29;20032;-81
2023/12/16 01:03:47;;;;;;;34.22;20.38;;;;;;;4.71;100.00;101439.13;4918419;29;20497;-81
2023/12/16 01:06:13;;;;;;;31.77;19.63;;;;;;;4.79;100.00;101452.94;4918773;29;20069;-81
2023/12/16 01:08:38;;;;;;;32.22;20.50;;;;;;;4.68;100.00;101444.31;4918419;29;20055;-81
2023/12/16 01:11:04;;;;;;;37.78;21.77;;;;;;;4.77;100.00;101458.97;4918531;29;20080;-81
2023/12/16 01:13:29;;;;;;;40.13;24.98;;;;;;;4.87;100.00;101476.25;4901465;29;20554;-81
2023/12/16 01:15:55;;;;;;;49.10;30.83;;;;;;;4.89;100.00;101487.44;4918519;29;20024;-81
2023/12/16 01:18:20;;;;;;;36.58;22.17;;;;;;;4.69;100.00;101451.19;4918585;29;20024;-81
2023/12/16 01:20:45;;;;;;;31.63;20.83;;;;;;;4.88;100.00;101475.38;4918343;29;20067;-81
2023/12/16 01:23:11;;;;;;;37.10;20.17;;;;;;;4.80;100.00;101466.72;4918273;29;20051;-81
2023/12/16 01:25:36;;;;;;;31.67;20.83;;;;;;;4.72;100.00;101443.47;4918207;29;20025;-81
2023/12/16 01:28:02;;;;;;;34.05;20.23;;;;;;;4.93;100.00;101484.00;4918456;29;20035;-81
2023/12/16 01:30:29;;;;;;;34.70;20.00;;;;;;;4.88;100.00;101471.06;4918487;29;20032;-81
2023/12/16 01:32:54;;;;;;;31.25;19.67;;;;;;;4.84;100.00;101469.31;4900935;29;20509;-81
2023/12/16 01:35:19;;;;;;;30.25;18.55;;;;;;;4.87;100.00;101461.59;4917955;29;20063;-81
2023/12/16 01:37:44;;;;;;;31.58;19.02;;;;;;;4.84;100.00;101450.38;4917950;29;20048;-81
2023/12/16 01:40:10;;;;;;;31.10;19.48;;;;;;;4.88;100.00;101468.50;4918191;29;20070;-81
2023/12/16 01:42:36;;;;;;;35.75;19.90;;;;;;;4.69;100.00;101427.94;4917848;29;20059;-81
2023/12/16 01:45:01;;;;;;;30.73;18.23;;;;;;;4.71;100.00;101423.66;4918034;29;20028;-81
2023/12/16 01:47:27;;;;;;;32.75;18.63;;;;;;;4.70;100.00;101416.75;4900761;29;20541;-81
2023/12/16 01:49:52;;;;;;;30.33;18.25;;;;;;;4.87;100.00;101445.25;4917877;29;20032;-81
2023/12/16 01:52:18;;;;;;;30.10;17.48;;;;;;;4.78;100.00;101440.03;4917971;29;20127;-81
2023/12/16 01:54:44;;;;;;;28.70;17.05;;;;;;;4.75;100.00;101430.56;4917593;29;20036;-81
2023/12/16 01:57:09;;;;;;;27.13;17.27;;;;;;;4.70;100.00;101440.00;4917736;29;20028;-81
2023/12/16 01:59:35;;;;;;;33.85;18.13;;;;;;;4.83;100.00;101464.16;4917483;29;20032;-81
2023/12/16 02:02:00;;;;;;;26.35;16.70;;;;;;;4.85;100.00;101467.63;4917821;29;20064;-81
2023/12/16 02:04:26;;;;;;;30.23;17.58;;;;;;;4.82;100.00;101475.34;4917777;29;20036;-81
2023/12/16 02:06:51;;;;;;;25.38;16.98;;;;;;;4.65;100.00;101455.44;4917549;29;20024;-81
2023/12/16 02:09:18;;;;;;;28.48;16.98;;;;;;;4.88;100.00;101501.19;4916373;29;20028;-81
2023/12/16 02:11:44;;;;;;;30.35;17.23;;;;;;;4.79;100.00;101493.41;4917826;29;20131;-81
2023/12/16 02:14:09;;;;;;;34.08;17.83;;;;;;;4.67;100.00;101465.78;4900824;29;20107;-81
2023/12/16 02:16:36;;;;;;;26.60;16.85;;;;;;;4.89;100.00;101505.53;4917516;29;20043;-81
2023/12/16 02:19:01;;;;;;;26.80;16.58;;;;;;;4.78;100.00;101465.84;4918364;29;20030;-81
2023/12/16 02:21:26;;;;;;;31.10;16.73;;;;;;;4.93;100.00;101497.81;4900583;29;20173;-81
2023/12/16 02:23:52;;;;;;;26.83;15.65;;;;;;;4.71;100.00;101457.19;4917928;29;20032;-81
2023/12/16 02:26:17;;;;;;;31.45;17.17;;;;;;;4.93;100.00;101500.38;4918298;29;20103;-81
2023/12/16 02:28:43;;;;;;;28.33;16.25;;;;;;;4.90;100.00;101500.34;4920046;29;20032;-81
2023/12/16 02:31:08;;;;;;;25.70;15.50;;;;;;;4.53;100.00;101426.97;4918344;29;20032;-81
2023/12/16 02:33:33;;;;;;;35.13;20.52;;;;;;;4.81;100.00;101464.16;4922352;29;20035;-80
2023/12/16 02:36:02;;;;;;;25.00;17.58;;;;;;;4.94;100.00;101489.19;4924029;29;20102;-80
2023/12/16 02:38:27;;;;;;;31.65;19.70;;;;;;;4.72;100.00;101440.88;4924865;29;20510;-81
2023/12/16 02:40:53;;;;;;;28.85;18.58;;;;;;;4.81;100.00;101463.31;4923827;29;20059;-81
2023/12/16 02:43:18;;;;;;;27.23;17.25;;;;;;;4.87;100.00;101469.34;4919374;29;20064;-81
2023/12/16 02:45:44;;;;;;;31.85;16.77;;;;;;;4.68;100.00;101449.47;4916683;29;20433;-81
2023/12/16 02:48:09;;;;;;;29.63;15.40;;;;;;;4.65;100.00;101436.53;4917122;29;20090;-81
2023/12/16 02:50:34;;;;;;;44.65;27.75;;;;;;;4.90;100.00;101465.94;4917097;29;20028;-81
2023/12/16 02:52:59;;;;;;;36.53;22.20;;;;;;;4.73;100.00;101446.03;4916860;29;20028;-81
2023/12/16 02:55:25;;;;;;;30.63;17.50;;;;;;;4.94;100.00;101478.00;4916584;29;20032;-81
2023/12/16 02:57:50;;;;;;;35.08;19.95;;;;;;;4.72;100.00;101435.72;4916849;29;20031;-80
2023/12/16 03:00:16;;;;;;;32.50;18.30;;;;;;;4.99;100.00;101492.66;4916608;29;20368;-81
2023/12/16 03:02:41;;;;;;;30.63;18.17;;;;;;;5.01;100.00;101490.06;4916928;29;20036;-81
2023/12/16 03:05:07;;;;;;;35.33;18.73;;;;;;;5.02;100.00;101488.38;4916740;29;20029;-81
2023/12/16 03:07:33;;;;;;;33.15;17.80;;;;;;;4.85;100.00;101454.72;4916614;29;20032;-81
2023/12/16 03:09:58;;;;;;;41.88;26.42;;;;;;;4.43;100.00;101373.59;4916229;29;20131;-81
2023/12/16 03:12:24;;;;;;;52.40;31.23;;;;;;;4.97;100.00;101460.81;4916578;29;20028;-81
2023/12/16 03:14:50;;;;;;;32.58;20.55;;;;;;;4.89;100.00;101446.13;4899144;29;20549;-81
2023/12/16 03:17:15;;;;;;;31.98;18.50;;;;;;;4.86;100.00;101440.94;4916422;29;20116;-81
2023/12/16 03:19:41;;;;;;;37.92;24.17;;;;;;;5.08;100.00;101473.78;4916308;29;20036;-81
2023/12/16 03:22:06;;;;;;;44.55;24.95;;;;;;;5.02;100.00;101465.16;4914859;29;20028;-81
2023/12/16 03:24:31;;;;;;;37.63;24.02;;;;;;;5.08;100.00;101483.25;4916566;29;20096;-81
2023/12/16 03:26:57;;;;;;;52.88;30.77;;;;;;;5.09;100.00;101501.31;4914806;29;20035;-81
2023/12/16 03:29:22;;;;;;;44.17;28.27;;;;;;;5.08;100.00;101498.75;4915811;29;20028;-81
2023/12/16 03:31:47;;;;;;;38.78;22.75;;;;;;;5.05;100.00;101498.72;4916131;29;20032;-81
2023/12/16 03:34:13;;;;;;;41.55;23.38;;;;;;;5.07;100.00;101491.84;4916177;29;20525;-81
2023/12/16 03:36:38;;;;;;;31.30;17.98;;;;;;;5.09;100.00;101505.63;4916115;29;20028;-81
2023/12/16 03:39:04;;;;;;;36.65;20.10;;;;;;;5.10;100.00;101502.19;4916064;29;20036;-81
2023/12/16 03:41:29;;;;;;;34.17;18.05;;;;;;;5.13;100.00;101512.53;4898618;29;20415;-81
2023/12/16 03:43:55;;;;;;;36.47;20.50;;;;;;;4.94;100.00;101481.44;4915557;29;20032;-81
2023/12/16 03:46:21;;;;;;;34.53;18.30;;;;;;;4.92;100.00;101483.16;4914959;29;20039;-81
2023/12/16 03:48:46;;;;;;;26.42;15.90;;;;;;;5.16;100.00;101517.72;4915955;29;20079;-81
2023/12/16 03:51:12;;;;;;;36.72;23.20;;;;;;;5.11;100.00;101512.53;4915846;29;20027;-81
2023/12/16 03:53:37;;;;;;;29.90;18.50;;;;;;;5.18;100.00;101522.06;4898852;29;20062;-81
2023/12/16 03:56:03;;;;;;;29.98;17.95;;;;;;;4.88;100.00;101473.66;4915669;29;20035;-81
2023/12/16 03:58:29;;;;;;;29.80;16.90;;;;;;;5.16;100.00;101516.00;4915626;29;20088;-81
2023/12/16 04:00:54;;;;;;;37.88;19.20;;;;;;;4.98;100.00;101483.19;4915677;29;20036;-81
2023/12/16 04:03:19;;;;;;;50.30;28.10;;;;;;;5.08;100.00;101501.31;4915616;29;20401;-81
2023/12/16 04:05:45;;;;;;;42.90;22.38;;;;;;;5.16;100.00;101518.59;4915821;29;20063;-81
2023/12/16 04:08:10;;;;;;;33.90;20.27;;;;;;;5.06;100.00;101503.03;4915656;29;20471;-81
2023/12/16 04:10:36;;;;;;;78.60;43.05;;;;;;;5.11;100.00;101514.25;4923027;29;20055;-81
2023/12/16 04:13:01;;;;;;;37.97;21.65;;;;;;;5.10;100.00;101497.00;4933977;29;20097;-81
2023/12/16 04:15:27;;;;;;;35.08;20.05;;;;;;;5.11;100.00;101489.28;4934575;29;20032;-81
2023/12/16 04:17:52;;;;;;;33.70;18.90;;;;;;;5.15;100.00;101503.09;4934510;29;20032;-81
2023/12/16 04:20:18;;;;;;;33.55;18.95;;;;;;;5.16;100.00;101497.06;4934578;29;20045;-81
2023/12/16 04:22:43;;;;;;;47.05;30.63;;;;;;;5.13;100.00;101482.41;4934251;29;20113;-81
2023/12/16 04:25:11;;;;;;;34.55;19.83;;;;;;;5.11;100.00;101476.38;4934283;29;20034;-81
2023/12/16 04:27:38;;;;;;;32.85;19.60;;;;;;;5.13;100.00;101473.78;4934426;29;20364;-81
2023/12/16 04:30:04;;;;;;;26.65;17.48;;;;;;;5.22;100.00;101489.31;4934336;29;20370;-81
2023/12/16 04:32:30;;;;;;;33.42;21.48;;;;;;;5.09;100.00;101478.06;4934891;29;20042;-81
2023/12/16 04:34:55;;;;;;;38.00;23.83;;;;;;;5.25;100.00;101512.59;4938306;29;20032;-81
2023/12/16 04:37:21;;;;;;;41.92;27.05;;;;;;;5.23;100.00;101522.94;4938216;29;20119;-81
2023/12/16 04:39:46;;;;;;;47.38;27.30;;;;;;;5.13;100.00;101507.38;4938078;29;20726;-81
2023/12/16 04:42:11;;;;;;;48.67;29.27;;;;;;;5.15;100.00;101523.75;4938074;29;20653;-81
2023/12/16 04:44:37;;;;;;;36.67;21.60;;;;;;;5.19;100.00;101528.09;4938142;29;20541;-81
2023/12/16 04:47:03;;;;;;;29.33;18.70;;;;;;;5.01;100.00;101490.06;4938174;29;20481;-81
2023/12/16 04:49:29;;;;;;;22.80;15.15;;;;;;;5.30;100.00;101541.03;4920851;29;20036;-81
2023/12/16 04:51:54;;;;;;;26.48;16.20;;;;;;;5.09;100.00;101514.22;4937915;29;20035;-81
2023/12/16 04:54:20;;;;;;;27.65;16.52;;;;;;;4.99;100.00;101492.66;4938137;29;20027;-81
2023/12/16 04:56:47;;;;;;;25.15;16.60;;;;;;;5.13;100.00;101509.94;4937760;29;20032;-81
2023/12/16 04:59:13;;;;;;;28.35;16.13;;;;;;;5.21;100.00;101522.06;4936434;29;20066;-81
2023/12/16 05:01:38;;;;;;;38.50;26.50;;;;;;;5.07;100.00;101497.00;4937762;29;20028;-81
2023/12/16 05:04:03;;;;;;;38.15;26.15;;;;;;;5.19;100.00;101521.19;4937809;29;20039;-80
2023/12/16 05:06:29;;;;;;;34.60;23.58;;;;;;;5.03;100.00;101490.97;4937945;29;20044;-81
2023/12/16 05:08:54;;;;;;;39.15;24.73;;;;;;;5.08;100.00;101499.59;4937898;29;20043;-81
2023/12/16 05:11:19;;;;;;;34.10;21.30;;;;;;;5.22;100.00;101536.72;4937243;29;20405;-81
2023/12/16 05:13:45;;;;;;;32.75;20.38;;;;;;;5.15;100.00;101522.03;4937909;29;20046;-81
2023/12/16 05:16:10;;;;;;;29.88;19.17;;;;;;;5.33;100.00;101548.81;4937795;29;20035;-81
2023/12/16 05:18:35;;;;;;;40.28;23.63;;;;;;;5.34;100.00;101550.53;4937501;29;20389;-81
2023/12/16 05:21:01;;;;;;;35.97;24.25;;;;;;;5.25;100.00;101528.09;4937287;29;20437;-81
2023/12/16 05:23:27;;;;;;;35.30;21.98;;;;;;;5.37;100.00;101542.81;4937216;29;20510;-81
2023/12/16 05:25:52;;;;;;;36.30;22.23;;;;;;;5.35;100.00;101540.22;4937280;29;20034;-81
2023/12/16 05:28:17;;;;;;;32.38;19.10;;;;;;;5.21;100.00;101513.44;4937278;29;20043;-81
2023/12/16 05:30:43;;;;;;;34.80;24.52;;;;;;;5.23;100.00;101510.03;4937577;29;20086;-81
2023/12/16 05:33:08;;;;;;;34.00;24.15;;;;;;;5.23;100.00;101510.03;4936759;29;20106;-81
2023/12/16 05:35:33;;;;;;;34.00;20.70;;;;;;;5.19;100.00;101494.50;4937336;29;20039;-81
2023/12/16 05:37:59;;;;;;;36.58;19.38;;;;;;;5.43;100.00;101546.28;4937388;29;20039;-81
2023/12/16 05:40:24;;;;;;;29.65;17.38;;;;;;;5.30;100.00;101538.44;4936903;29;20036;-81
2023/12/16 05:42:49;;;;;;;30.52;17.25;;;;;;;5.21;100.00;101526.34;4936810;29;20040;-81
2023/12/16 05:45:15;;;;;;;30.40;16.40;;;;;;;5.19;100.00;101526.34;4937012;29;20040;-81
2023/12/16 05:47:40;;;;;;;28.30;15.68;;;;;;;5.38;100.00;101557.44;4937146;29;20047;-81
2023/12/16 05:50:08;;;;;;;29.65;15.68;;;;;;;5.08;100.00;101506.47;4935336;29;20043;-81
2023/12/16 05:52:34;;;;;;;29.05;16.52;;;;;;;5.36;100.00;101548.84;4937063;29;20083;-81
2023/12/16 05:54:59;;;;;;;29.52;17.10;;;;;;;5.30;100.00;101534.16;4935295;29;20082;-81
2023/12/16 05:57:25;;;;;;;31.15;20.27;;;;;;;5.36;100.00;101547.13;4936975;29;20024;-81
2023/12/16 05:59:51;;;;;;;27.90;17.98;;;;;;;5.08;100.00;101499.59;4936726;29;20046;-81
2023/12/16 06:02:16;;;;;;;28.80;16.63;;;;;;;5.30;100.00;101533.28;4935604;29;20374;-81
2023/12/16 06:04:42;;;;;;;27.05;14.80;;;;;;;5.16;100.00;101512.56;4937026;29;20442;-81
2023/12/16 06:07:07;;;;;;;26.45;16.65;;;;;;;5.29;100.00;101534.16;4936441;29;20104;-81
2023/12/16 06:09:33;;;;;;;28.70;17.10;;;;;;;5.48;100.00;101573.03;4936414;29;20122;-81
2023/12/16 06:11:58;;;;;;;29.20;16.20;;;;;;;5.48;100.00;101560.09;4934955;29;20582;-81
2023/12/16 06:14:23;;;;;;;35.20;17.48;;;;;;;5.36;100.00;101557.44;4936496;29;20111;-81
2023/12/16 06:16:49;;;;;;;30.67;17.58;;;;;;;5.50;100.00;101573.88;4936623;29;20116;-80
2023/12/16 06:19:15;;;;;;;27.73;16.60;;;;;;;5.37;100.00;101551.41;4936472;29;20111;-81
2023/12/16 06:21:40;;;;;;;30.55;17.40;;;;;;;5.26;100.00;101535.00;4935145;29;20030;-81
2023/12/16 06:24:08;;;;;;;32.58;16.13;;;;;;;5.51;100.00;101572.16;4919135;29;20123;-81
2023/12/16 06:26:34;;;;;;;30.15;17.85;;;;;;;5.28;100.00;101538.47;4936262;29;20150;-81
2023/12/16 06:28:59;;;;;;;29.48;17.40;;;;;;;5.35;100.00;101540.22;4936187;29;20467;-81
2023/12/16 06:31:24;;;;;;;28.20;17.77;;;;;;;5.43;100.00;101554.03;4945290;29;20086;-81
2023/12/16 06:33:50;;;;;;;33.00;18.35;;;;;;;5.46;100.00;101563.53;4955498;29;20027;-81
2023/12/16 06:36:15;;;;;;;30.75;17.85;;;;;;;5.40;100.00;101554.03;4954117;29;20039;-81
2023/12/16 06:38:41;;;;;;;30.50;19.35;;;;;;;5.43;100.00;101560.91;4955567;29;20114;-81
2023/12/16 06:41:06;;;;;;;28.27;19.00;;;;;;;5.25;100.00;101528.09;4954759;29;20070;-81
2023/12/16 06:43:31;;;;;;;30.90;18.58;;;;;;;5.46;100.00;101568.69;4955173;29;20424;-81
2023/12/16 06:45:57;;;;;;;31.80;18.23;;;;;;;5.48;100.00;101569.56;4953990;29;20049;-81
2023/12/16 06:48:22;;;;;;;30.85;17.23;;;;;;;5.32;100.00;101547.09;4955237;29;20034;-80
2023/12/16 06:50:51;;;;;;;34.10;18.95;;;;;;;5.34;100.00;101553.13;4955021;29;20035;-81
2023/12/16 06:53:17;;;;;;;31.55;17.98;;;;;;;5.37;100.00;101551.41;4954800;29;20027;-80
2023/12/16 06:55:42;;;;;;;27.05;18.30;;;;;;;5.47;100.00;101573.84;4936938;29;20078;-81
2023/12/16 06:58:08;;;;;;;29.08;18.27;;;;;;;5.54;100.00;101592.84;4954853;29;20038;-81
2023/12/16 07:00:33;;;;;;;32.28;18.88;;;;;;;5.37;100.00;101569.50;4954737;29;20054;-81
2023/12/16 07:02:59;;;;;;;31.00;19.48;;;;;;;5.43;100.00;101585.03;4954512;29;20031;-81
2023/12/16 07:05:25;;;;;;;30.10;18.33;;;;;;;5.31;100.00;101566.91;4954533;29;20034;-81
2023/12/16 07:07:50;;;;;;;28.52;17.88;;;;;;;5.49;100.00;101595.41;4954604;29;20027;-81
2023/12/16 07:10:16;;;;;;;31.50;18.35;;;;;;;5.39;100.00;101579.84;4954342;29;20062;-81
2023/12/16 07:12:41;;;;;;;30.45;18.40;;;;;;;5.57;100.00;101592.88;4954787;29;20510;-81
2023/12/16 07:15:07;;;;;;;32.08;18.35;;;;;;;5.57;100.00;101610.97;4954277;29;20089;-81
2023/12/16 07:17:33;;;;;;;32.50;18.77;;;;;;;5.63;100.00;101608.41;4954568;29;20031;-81
2023/12/16 07:19:59;;;;;;;32.30;18.95;;;;;;;5.60;100.00;101610.09;4954232;29;20495;-81
2023/12/16 07:22:24;;;;;;;33.30;19.70;;;;;;;5.60;100.00;101600.63;4954246;29;20035;-81
2023/12/16 07:24:50;;;;;;;33.35;21.13;;;;;;;5.56;100.00;101592.84;4954252;29;20063;-81
2023/12/16 07:27:15;;;;;;;29.83;18.60;;;;;;;5.60;100.00;101599.75;4953808;29;20105;-81
2023/12/16 07:29:41;;;;;;;27.98;19.00;;;;;;;5.52;100.00;101576.50;4954499;29;20469;-80
2023/12/16 07:32:08;;;;;;;35.50;20.92;;;;;;;5.62;100.00;101604.09;4952979;29;20194;-81
2023/12/16 07:34:33;;;;;;;53.92;34.10;;;;;;;5.64;100.00;101599.78;4954299;29;20089;-81
2023/12/16 07:36:58;;;;;;;46.85;34.35;;;;;;;5.55;100.00;101589.41;4954311;29;20110;-81
2023/12/16 07:39:24;;;;;;;45.97;29.60;;;;;;;5.53;100.00;101585.09;4953867;29;20504;-81
2023/12/16 07:41:49;;;;;;;40.42;25.60;;;;;;;5.63;100.00;101600.66;4954421;29;20024;-80
2023/12/16 07:44:15;;;;;;;41.67;25.40;;;;;;;5.64;100.00;101611.84;4953938;29;20031;-80
2023/12/16 07:46:41;;;;;;;47.38;27.88;;;;;;;5.45;100.00;101579.88;4954160;29;20598;-80
2023/12/16 07:49:06;;;;;;;35.58;23.70;;;;;;;5.63;100.00;101611.00;4953995;29;20027;-80
2023/12/16 07:51:32;;;;;;;36.25;22.40;;;;;;;5.55;100.00;101599.75;4954062;29;20504;-80
2023/12/16 07:53:57;;;;;;;40.38;24.20;;;;;;;5.72;100.00;101630.84;4953513;28;20410;-80
2023/12/16 07:56:24;;;;;;;42.85;26.13;;;;;;;5.73;100.00;101630.00;4954108;29;20046;-80
2023/12/16 07:58:50;;;;;;;46.55;29.77;;;;;;;5.56;100.00;101605.78;4954095;29;20024;-80
2023/12/16 08:01:18;;;;;;;49.15;30.08;;;;;;;5.55;100.00;101607.50;4953297;29;20054;-80
2023/12/16 08:03:44;;;;;;;51.85;31.42;;;;;;;5.38;100.00;101591.03;4953792;29;20034;-79
2023/12/16 08:06:10;;;;;;;49.20;27.17;;;;;;;5.70;100.00;101651.53;4953550;29;20057;-79
2023/12/16 08:08:37;;;;;;;42.47;26.70;;;;;;;5.43;100.00;101600.53;4952809;28;20053;-80
2023/12/16 08:11:04;;;;;;;41.20;25.65;;;;;;;5.51;100.00;101610.94;4953681;29;20061;-80
2023/12/16 08:13:29;;;;;;;37.63;24.20;;;;;;;5.61;100.00;101606.69;4953636;29;20508;-80
2023/12/16 08:15:54;;;;;;;38.33;23.23;;;;;;;5.76;100.00;101645.53;4953735;29;20023;-80
2023/12/16 08:18:20;;;;;;;40.47;23.98;;;;;;;5.59;100.00;101601.50;4953415;29;20027;-81
2023/12/16 08:20:45;;;;;;;37.92;23.42;;;;;;;5.72;100.00;101617.94;4953527;29;20055;-80
2023/12/16 08:23:10;;;;;;;39.92;26.42;;;;;;;5.67;100.00;101599.81;4952970;29;20031;-80
2023/12/16 08:25:35;;;;;;;46.00;25.85;;;;;;;5.82;100.00;101622.31;4952439;29;20094;-80
2023/12/16 08:28:01;;;;;;;37.40;24.50;;;;;;;5.72;100.00;101587.75;4953426;29;20079;-80
2023/12/16 08:30:26;;;;;;;45.67;28.85;;;;;;;5.90;100.00;101618.03;4953420;29;20031;-80
2023/12/16 08:32:52;;;;;;;46.30;30.60;;;;;;;5.94;100.00;101621.50;4953272;29;20058;-81
2023/12/16 08:35:17;;;;;;;43.42;29.33;;;;;;;5.87;100.00;101605.06;4953086;29;20031;-80
2023/12/16 08:37:43;;;;;;;38.88;27.00;;;;;;;5.88;100.00;101608.53;4953397;29;20024;-81
2023/12/16 08:40:09;;;;;;;43.30;26.10;;;;;;;6.03;100.00;101629.31;4953249;29;20106;-80
2023/12/16 08:42:35;;;;;;;40.15;28.02;;;;;;;5.85;100.00;101601.59;4953420;29;20031;-80
2023/12/16 08:45:00;;;;;;;43.35;30.63;;;;;;;5.91;100.00;101612.00;4953051;29;20442;-80
2023/12/16 08:47:26;;;;;;;41.75;26.00;;;;;;;5.86;100.00;101598.19;4953734;29;20042;-80
2023/12/16 08:49:51;;;;;;;47.10;28.92;;;;;;;6.09;100.00;101633.63;4954753;29;20063;-81
2023/12/16 08:52:16;;;;;;;43.78;30.83;;;;;;;5.89;100.00;101602.47;4954207;29;20035;-80
2023/12/16 08:54:42;;;;;;;50.78;31.85;;;;;;;6.04;100.00;101646.56;4954586;28;20028;-80
2023/12/16 08:57:07;;;;;;;47.88;30.40;;;;;;;6.09;100.00;101652.59;4954463;29;20059;-80
2023/12/16 08:59:33;;;;;;;45.17;29.45;;;;;;;6.09;100.00;101649.16;4953448;29;20070;-80
2023/12/16 09:01:58;;;;;;;46.00;29.92;;;;;;;6.10;100.00;101645.72;4954515;29;20058;-80
2023/12/16 09:04:24;;;;;;;58.92;33.13;;;;;;;5.95;100.00;101623.25;4954200;29;20034;-80
2023/12/16 09:06:49;;;;;;;54.30;31.45;;;;;;;5.89;100.00;101608.53;4953500;29;20035;-80
2023/12/16 09:09:14;;;;;;;44.53;28.23;;;;;;;5.99;100.00;101619.81;4952896;29;20023;-81
2023/12/16 09:11:42;;;;;;;46.88;29.52;;;;;;;6.13;100.00;101641.41;4953283;29;20035;-81
2023/12/16 09:14:08;;;;;;;47.53;30.75;;;;;;;6.02;100.00;101622.38;4953012;29;20038;-80
2023/12/16 09:16:34;;;;;;;49.38;30.38;;;;;;;6.15;100.00;101639.72;4951564;29;20031;-81
2023/12/16 09:19:00;;;;;;;38.70;25.42;;;;;;;6.05;100.00;101627.59;4936536;29;20027;-81
2023/12/16 09:21:25;;;;;;;40.17;24.17;;;;;;;6.11;100.00;101635.38;4955475;29;20382;-81
2023/12/16 09:23:51;;;;;;;38.00;28.17;;;;;;;6.18;100.00;101642.28;4956819;29;20031;-81
2023/12/16 09:26:16;;;;;;;42.63;25.75;;;;;;;6.11;100.00;101624.16;4956504;29;20038;-82
2023/12/16 09:28:41;;;;;;;52.22;31.50;;;;;;;6.01;100.00;101599.97;4956682;29;20031;-81
2023/12/16 09:31:07;;;;;;;41.38;27.05;;;;;;;6.20;100.00;101624.19;4956671;29;20042;-81
2023/12/16 09:33:32;;;;;;;42.85;25.13;;;;;;;6.03;100.00;101594.84;4956614;29;20043;-81
2023/12/16 09:35:57;;;;;;;43.25;25.65;;;;;;;6.26;100.00;101631.97;4956130;29;20027;-82
2023/12/16 09:38:23;;;;;;;49.00;26.73;;;;;;;6.29;100.00;101636.31;4956496;29;20034;-81
2023/12/16 09:40:48;;;;;;;43.58;25.30;;;;;;;6.23;100.00;101629.34;4955968;29;20027;-81
2023/12/16 09:43:17;;;;;;;42.60;28.10;;;;;;;6.35;100.00;101650.09;4955430;29;20042;-81
2023/12/16 09:45:48;;;;;;;44.65;27.73;;;;;;;6.39;100.00;101650.97;4956111;29;20027;-81
2023/12/16 09:48:17;;;;;;;47.55;25.80;;;;;;;6.14;100.00;101598.28;4956078;29;20176;-81
2023/12/16 09:50:42;;;;;;;49.53;30.25;;;;;;;6.16;100.00;101604.34;4956135;29;20031;-82
2023/12/16 09:53:09;;;;;;;40.40;24.92;;;;;;;6.23;100.00;101621.59;4956129;29;20034;-81
2023/12/16 09:55:34;;;;;;;49.20;26.48;;;;;;;6.09;100.00;101592.25;4954846;28;20031;-81
2023/12/16 09:58:00;;;;;;;38.15;22.92;;;;;;;6.32;100.00;101634.59;4954966;29;20031;-81
2023/12/16 10:00:30;;;;;;;48.35;25.40;;;;;;;6.11;100.00;101590.50;4955759;29;20393;-81
2023/12/16 10:02:56;;;;;;;55.67;30.58;;;;;;;6.24;100.00;101613.84;4955920;29;20042;-81
2023/12/16 10:05:26;;;;;;;45.95;25.95;;;;;;;6.35;100.00;101620.78;4954339;29;20078;-81
2023/12/16 10:08:00;;;;;;;60.80;37.85;;;;;;;6.23;100.00;101598.31;4955969;29;20027;-81
2023/12/16 10:10:25;;;;;;;192.00;158.32;;;;;;;6.45;100.00;101636.34;4955480;29;20078;-81
2023/12/16 10:12:52;;;;;;;76.07;55.78;;;;;;;6.30;100.00;101602.66;4955828;29;20031;-81
2023/12/16 10:15:43;;;;;;;63.08;44.95;;;;;;;6.41;100.00;101624.25;4955352;29;20474;-81
2023/12/16 10:18:09;;;;;;;49.80;31.48;;;;;;;6.35;100.00;101605.25;4915003;29;20044;-81
2023/12/16 10:20:34;;;;;;;43.58;28.40;;;;;;;6.32;100.00;101598.34;4914971;29;20470;-81
2023/12/16 10:23:03;;;;;;;40.85;24.63;;;;;;;6.44;100.00;101616.47;4915021;29;20063;-81
2023/12/16 10:25:32;;;;;;;40.45;21.98;;;;;;;6.35;100.00;101606.09;4914642;29;20417;-81
2023/12/16 10:28:03;;;;;;;33.45;19.17;;;;;;;6.37;100.00;101603.53;4899038;29;20036;-81
2023/12/16 10:30:29;;;;;;;43.78;22.48;;;;;;;6.36;100.00;101592.31;4913781;29;20036;-81
2023/12/16 10:32:57;;;;;;;37.78;21.58;;;;;;;6.54;100.00;101621.69;4914804;29;20502;-81
2023/12/16 10:35:23;;;;;;;34.63;20.42;;;;;;;6.57;100.00;101616.50;4914434;29;20055;-82
2023/12/16 10:37:50;;;;;;;35.67;19.90;;;;;;;6.48;100.00;101599.22;4914930;29;20538;-81
2023/12/16 10:40:16;;;;;;;32.63;17.70;;;;;;;6.45;100.00;101584.56;4914557;29;20038;-81
2023/12/16 10:42:45;;;;;;;32.45;16.88;;;;;;;6.55;100.00;101603.56;4914515;29;20403;-81
2023/12/16 10:45:11;;;;;;;32.30;18.33;;;;;;;6.62;100.00;101614.78;4914231;29;20032;-81
2023/12/16 10:47:38;;;;;;;29.02;16.77;;;;;;;6.66;100.00;101611.34;4914561;29;20046;-81
2023/12/16 10:50:04;;;;;;;30.35;16.55;;;;;;;6.39;100.00;101555.22;4914446;29;20059;-81
2023/12/16 10:52:54;;;;;;;32.05;15.80;;;;;;;6.80;100.00;101619.97;4913319;29;20071;-81
2023/12/16 10:55:29;;;;;;;27.77;15.57;;;;;;;6.67;100.00;101587.19;4901374;29;20056;-81
2023/12/16 10:58:35;;;;;;;32.70;15.32;;;;;;;6.64;100.00;101585.44;4895753;29;20624;-86
2023/12/16 11:01:15;;;;;;;26.63;15.75;;;;;;;6.64;100.00;101569.91;4895462;29;20153;-81
2023/12/16 11:03:59;;;;;;;25.90;14.63;;;;;;;6.78;100.00;101589.75;4895422;29;20037;-81